sensor_id;sensor_type;location;lat;lon;timestamp;pressure;altitude;pressure_sealevel;temperature;humidity
7075;BME280;3578;51.568;6.932;2023-06-22T00:01:33;55824.31;;;-144.14;82.24
7075;BME280;3578;51.568;6.932;2023-06-22T00:04:00;55820.28;;;-144.14;82.44
7075;BME280;3578;51.568;6.932;2023-06-22T00:06:28;55810.25;;;-144.14;83.60
7075;BME280;3578;51.568;6.932;2023-06-22T00:08:55;55762.13;;;-144.14;83.82
7075;BME280;3578;51.568;6.932;2023-06-22T00:11:22;55764.13;;;-144.14;84.31
7075;BME280;3578;51.568;6.932;2023-06-22T00:13:50;55718.00;;;-144.14;84.63
7075;BME280;3578;51.568;6.932;2023-06-22T00:16:16;55752.09;;;-144.14;84.72
7075;BME280;3578;51.568;6.932;2023-06-22T00:18:43;55724.03;;;-144.14;85.01
7075;BME280;3578;51.568;6.932;2023-06-22T00:21:12;55754.09;;;-144.14;85.50
7075;BME280;3578;51.568;6.932;2023-06-22T00:23:41;55732.06;;;-144.14;85.54
7075;BME280;3578;51.568;6.932;2023-06-22T00:26:08;55742.06;;;-144.14;85.29
7075;BME280;3578;51.568;6.932;2023-06-22T00:28:37;55784.19;;;-144.14;85.32
7075;BME280;3578;51.568;6.932;2023-06-22T00:31:04;55790.22;;;-144.14;84.98
7075;BME280;3578;51.568;6.932;2023-06-22T00:33:31;55770.16;;;-144.14;85.03
7075;BME280;3578;51.568;6.932;2023-06-22T00:35:58;55784.19;;;-144.14;85.35
7075;BME280;3578;51.568;6.932;2023-06-22T00:38:25;55750.09;;;-144.14;85.71
7075;BME280;3578;51.568;6.932;2023-06-22T00:40:54;55784.19;;;-144.14;85.55
7075;BME280;3578;51.568;6.932;2023-06-22T00:43:21;55768.16;;;-144.14;85.51
7075;BME280;3578;51.568;6.932;2023-06-22T00:45:48;55758.13;;;-144.14;86.07
7075;BME280;3578;51.568;6.932;2023-06-22T00:48:16;55752.09;;;-144.14;86.43
7075;BME280;3578;51.568;6.932;2023-06-22T00:50:43;55770.16;;;-144.14;86.46
7075;BME280;3578;51.568;6.932;2023-06-22T00:53:10;55784.19;;;-144.14;86.55
7075;BME280;3578;51.568;6.932;2023-06-22T00:55:41;55746.09;;;-144.14;86.69
7075;BME280;3578;51.568;6.932;2023-06-22T00:58:10;55730.03;;;-144.14;86.81
7075;BME280;3578;51.568;6.932;2023-06-22T01:00:38;55770.16;;;-144.14;86.94
7075;BME280;3578;51.568;6.932;2023-06-22T01:03:05;55750.09;;;-144.14;86.67
7075;BME280;3578;51.568;6.932;2023-06-22T01:05:35;55772.16;;;-144.14;86.96
7075;BME280;3578;51.568;6.932;2023-06-22T01:08:16;55748.09;;;-144.14;87.06
7075;BME280;3578;51.568;6.932;2023-06-22T01:10:52;55748.09;;;-144.14;87.11
7075;BME280;3578;51.568;6.932;2023-06-22T01:13:29;55707.97;;;-144.14;87.46
7075;BME280;3578;51.568;6.932;2023-06-22T01:16:03;55722.03;;;-144.14;87.53
7075;BME280;3578;51.568;6.932;2023-06-22T01:18:35;55685.91;;;-144.14;87.39
7075;BME280;3578;51.568;6.932;2023-06-22T01:21:04;55663.84;;;-144.14;88.06
7075;BME280;3578;51.568;6.932;2023-06-22T01:23:50;55675.91;;;-144.14;88.32
7075;BME280;3578;51.568;6.932;2023-06-22T01:26:25;55593.66;;;-144.14;88.68
7075;BME280;3578;51.568;6.932;2023-06-22T01:28:57;55647.81;;;-144.14;89.02
7075;BME280;3578;51.568;6.932;2023-06-22T01:31:27;55559.56;;;-144.14;89.49
7075;BME280;3578;51.568;6.932;2023-06-22T01:33:59;55567.59;;;-144.14;89.25
7075;BME280;3578;51.568;6.932;2023-06-22T01:36:27;55579.63;;;-144.14;89.47
7075;BME280;3578;51.568;6.932;2023-06-22T01:38:56;55535.50;;;-144.14;90.01
7075;BME280;3578;51.568;6.932;2023-06-22T01:41:26;55547.53;;;-144.14;90.22
7075;BME280;3578;51.568;6.932;2023-06-22T01:43:56;55571.59;;;-144.14;90.76
7075;BME280;3578;51.568;6.932;2023-06-22T01:46:24;55527.50;;;-144.14;91.06
7075;BME280;3578;51.568;6.932;2023-06-22T01:48:51;55549.53;;;-144.14;90.89
7075;BME280;3578;51.568;6.932;2023-06-22T01:51:19;55551.56;;;-144.14;91.15
7075;BME280;3578;51.568;6.932;2023-06-22T01:53:46;55561.59;;;-144.14;91.04
7075;BME280;3578;51.568;6.932;2023-06-22T01:56:16;55531.50;;;-144.14;91.15
7075;BME280;3578;51.568;6.932;2023-06-22T01:58:50;55521.47;;;-144.14;91.39
7075;BME280;3578;51.568;6.932;2023-06-22T02:01:28;55491.38;;;-144.14;92.05
7075;BME280;3578;51.568;6.932;2023-06-22T02:04:05;55529.50;;;-144.14;92.07
7075;BME280;3578;51.568;6.932;2023-06-22T02:06:37;55453.28;;;-144.14;92.58
7075;BME280;3578;51.568;6.932;2023-06-22T02:09:09;55445.25;;;-144.14;93.01
7075;BME280;3578;51.568;6.932;2023-06-22T02:11:41;55487.38;;;-144.14;92.74
7075;BME280;3578;51.568;6.932;2023-06-22T02:14:10;55449.28;;;-144.14;92.89
7075;BME280;3578;51.568;6.932;2023-06-22T02:16:39;55449.28;;;-144.14;92.84
7075;BME280;3578;51.568;6.932;2023-06-22T02:19:07;55487.38;;;-144.14;92.95
7075;BME280;3578;51.568;6.932;2023-06-22T02:21:34;55527.50;;;-144.14;92.46
7075;BME280;3578;51.568;6.932;2023-06-22T02:24:01;55495.41;;;-144.14;92.79
7075;BME280;3578;51.568;6.932;2023-06-22T02:26:29;55487.38;;;-144.14;93.09
7075;BME280;3578;51.568;6.932;2023-06-22T02:28:57;55473.34;;;-144.14;93.10
7075;BME280;3578;51.568;6.932;2023-06-22T02:31:24;55435.25;;;-144.14;93.38
7075;BME280;3578;51.568;6.932;2023-06-22T02:33:58;55419.19;;;-144.14;93.49
7075;BME280;3578;51.568;6.932;2023-06-22T02:36:25;55453.28;;;-144.14;93.44
7075;BME280;3578;51.568;6.932;2023-06-22T02:38:53;55451.28;;;-144.14;93.31
7075;BME280;3578;51.568;6.932;2023-06-22T02:41:22;55447.28;;;-144.14;93.66
7075;BME280;3578;51.568;6.932;2023-06-22T02:43:49;55393.13;;;-144.14;94.49
7075;BME280;3578;51.568;6.932;2023-06-22T02:46:16;55413.19;;;-144.14;94.87
7075;BME280;3578;51.568;6.932;2023-06-22T02:48:43;55399.13;;;-144.14;95.40
7075;BME280;3578;51.568;6.932;2023-06-22T02:51:11;55447.28;;;-144.14;94.62
7075;BME280;3578;51.568;6.932;2023-06-22T02:53:38;55463.31;;;-144.14;93.89
7075;BME280;3578;51.568;6.932;2023-06-22T02:56:05;55523.47;;;-144.14;93.36
7075;BME280;3578;51.568;6.932;2023-06-22T02:58:32;55471.34;;;-144.14;93.16
7075;BME280;3578;51.568;6.932;2023-06-22T03:01:04;55503.41;;;-144.14;92.64
7075;BME280;3578;51.568;6.932;2023-06-22T03:03:32;55497.41;;;-144.14;93.10
7075;BME280;3578;51.568;6.932;2023-06-22T03:05:58;55411.19;;;-144.14;93.43
7075;BME280;3578;51.568;6.932;2023-06-22T03:08:28;55403.16;;;-144.14;93.84
7075;BME280;3578;51.568;6.932;2023-06-22T03:10:55;55407.16;;;-144.14;94.37
7075;BME280;3578;51.568;6.932;2023-06-22T03:13:23;55314.91;;;-144.14;94.86
7075;BME280;3578;51.568;6.932;2023-06-22T03:15:50;55300.88;;;-144.14;95.49
7075;BME280;3578;51.568;6.932;2023-06-22T03:18:18;55314.91;;;-144.14;95.64
7075;BME280;3578;51.568;6.932;2023-06-22T03:20:45;55316.91;;;-144.14;95.72
7075;BME280;3578;51.568;6.932;2023-06-22T03:23:12;55353.03;;;-144.14;96.35
7075;BME280;3578;51.568;6.932;2023-06-22T03:25:42;55330.97;;;-144.14;96.19
7075;BME280;3578;51.568;6.932;2023-06-22T03:28:10;55298.88;;;-144.14;95.93
7075;BME280;3578;51.568;6.932;2023-06-22T03:30:37;55355.03;;;-144.14;95.86
7075;BME280;3578;51.568;6.932;2023-06-22T03:33:04;55302.88;;;-144.14;96.01
7075;BME280;3578;51.568;6.932;2023-06-22T03:35:31;55322.94;;;-144.14;96.15
7075;BME280;3578;51.568;6.932;2023-06-22T03:37:58;55266.78;;;-144.14;96.31
7075;BME280;3578;51.568;6.932;2023-06-22T03:40:25;55238.72;;;-144.14;96.29
7075;BME280;3578;51.568;6.932;2023-06-22T03:42:53;55282.84;;;-144.14;96.65
7075;BME280;3578;51.568;6.932;2023-06-22T03:45:20;55272.81;;;-144.14;96.58
7075;BME280;3578;51.568;6.932;2023-06-22T03:47:47;55268.78;;;-144.14;96.68
7075;BME280;3578;51.568;6.932;2023-06-22T03:50:14;55306.91;;;-144.14;96.33
7075;BME280;3578;51.568;6.932;2023-06-22T03:52:41;55250.75;;;-144.14;96.75
7075;BME280;3578;51.568;6.932;2023-06-22T03:55:08;55280.81;;;-144.14;96.73
7075;BME280;3578;51.568;6.932;2023-06-22T03:57:35;55310.91;;;-144.14;96.38
7075;BME280;3578;51.568;6.932;2023-06-22T04:00:06;55298.88;;;-144.14;96.32
7075;BME280;3578;51.568;6.932;2023-06-22T04:02:33;55300.88;;;-144.14;96.09
7075;BME280;3578;51.568;6.932;2023-06-22T04:05:00;55355.03;;;-144.14;95.94
7075;BME280;3578;51.568;6.932;2023-06-22T04:07:27;55336.97;;;-144.14;95.87
7075;BME280;3578;51.568;6.932;2023-06-22T04:09:54;55359.03;;;-144.14;95.89
7075;BME280;3578;51.568;6.932;2023-06-22T04:12:21;55381.09;;;-144.14;95.79
7075;BME280;3578;51.568;6.932;2023-06-22T04:14:48;55365.06;;;-144.14;95.87
7075;BME280;3578;51.568;6.932;2023-06-22T04:17:16;55367.06;;;-144.14;95.96
7075;BME280;3578;51.568;6.932;2023-06-22T04:19:44;55343.00;;;-144.14;96.38
7075;BME280;3578;51.568;6.932;2023-06-22T04:22:12;55395.13;;;-144.14;96.03
7075;BME280;3578;51.568;6.932;2023-06-22T04:24:39;55417.19;;;-144.14;95.75
7075;BME280;3578;51.568;6.932;2023-06-22T04:27:06;55455.28;;;-144.14;95.43
7075;BME280;3578;51.568;6.932;2023-06-22T04:29:33;55457.28;;;-144.14;95.45
7075;BME280;3578;51.568;6.932;2023-06-22T04:32:00;55491.38;;;-144.14;95.60
7075;BME280;3578;51.568;6.932;2023-06-22T04:34:30;55493.41;;;-144.14;95.48
7075;BME280;3578;51.568;6.932;2023-06-22T04:36:57;55541.53;;;-144.14;95.49
7075;BME280;3578;51.568;6.932;2023-06-22T04:39:24;55601.69;;;-144.14;95.04
7075;BME280;3578;51.568;6.932;2023-06-22T04:41:52;55655.84;;;-144.14;94.52
7075;BME280;3578;51.568;6.932;2023-06-22T04:44:20;55693.94;;;-144.14;94.13
7075;BME280;3578;51.568;6.932;2023-06-22T04:46:51;55724.03;;;-144.14;93.88
7075;BME280;3578;51.568;6.932;2023-06-22T04:49:20;55800.25;;;-144.14;93.14
7075;BME280;3578;51.568;6.932;2023-06-22T04:51:49;55790.22;;;-144.14;92.97
7075;BME280;3578;51.568;6.932;2023-06-22T04:54:17;55778.19;;;-144.14;93.42
7075;BME280;3578;51.568;6.932;2023-06-22T04:56:44;55788.19;;;-144.14;93.55
7075;BME280;3578;51.568;6.932;2023-06-22T04:59:12;55794.22;;;-144.14;93.94
7075;BME280;3578;51.568;6.932;2023-06-22T05:01:39;55760.13;;;-144.14;92.79
7075;BME280;3578;51.568;6.932;2023-06-22T05:04:06;55790.22;;;-144.14;92.19
7075;BME280;3578;51.568;6.932;2023-06-22T05:06:33;55820.28;;;-144.14;91.87
7075;BME280;3578;51.568;6.932;2023-06-22T05:09:02;55796.22;;;-144.14;91.80
7075;BME280;3578;51.568;6.932;2023-06-22T05:11:30;55792.22;;;-144.14;92.28
7075;BME280;3578;51.568;6.932;2023-06-22T05:13:57;55784.19;;;-144.14;91.66
7075;BME280;3578;51.568;6.932;2023-06-22T05:16:24;55806.25;;;-144.14;92.02
7075;BME280;3578;51.568;6.932;2023-06-22T05:18:52;55776.16;;;-144.14;92.17
7075;BME280;3578;51.568;6.932;2023-06-22T05:21:22;55758.13;;;-144.14;92.62
7075;BME280;3578;51.568;6.932;2023-06-22T05:23:50;55760.13;;;-144.14;93.21
7075;BME280;3578;51.568;6.932;2023-06-22T05:26:19;55756.13;;;-144.14;93.75
7075;BME280;3578;51.568;6.932;2023-06-22T05:28:46;55724.03;;;-144.14;94.08
7075;BME280;3578;51.568;6.932;2023-06-22T05:31:14;55728.03;;;-144.14;94.41
7075;BME280;3578;51.568;6.932;2023-06-22T05:33:41;55701.97;;;-144.14;94.56
7075;BME280;3578;51.568;6.932;2023-06-22T05:36:09;55730.03;;;-144.14;94.56
7075;BME280;3578;51.568;6.932;2023-06-22T05:38:36;55760.13;;;-144.14;94.38
7075;BME280;3578;51.568;6.932;2023-06-22T05:41:03;55750.09;;;-144.14;94.46
7075;BME280;3578;51.568;6.932;2023-06-22T05:43:32;55722.03;;;-144.14;94.64
7075;BME280;3578;51.568;6.932;2023-06-22T05:46:00;55736.06;;;-144.14;94.97
7075;BME280;3578;51.568;6.932;2023-06-22T05:48:28;55714.00;;;-144.14;95.12
7075;BME280;3578;51.568;6.932;2023-06-22T05:50:55;55748.09;;;-144.14;95.13
7075;BME280;3578;51.568;6.932;2023-06-22T05:53:22;55760.13;;;-144.14;95.55
7075;BME280;3578;51.568;6.932;2023-06-22T05:55:49;55756.13;;;-144.14;95.38
7075;BME280;3578;51.568;6.932;2023-06-22T05:58:16;55778.19;;;-144.14;94.95
7075;BME280;3578;51.568;6.932;2023-06-22T06:00:44;55798.22;;;-144.14;94.04
7075;BME280;3578;51.568;6.932;2023-06-22T06:03:12;55842.34;;;-144.14;92.72
7075;BME280;3578;51.568;6.932;2023-06-22T06:05:43;55810.25;;;-144.14;92.05
7075;BME280;3578;51.568;6.932;2023-06-22T06:08:11;55856.41;;;-144.14;91.95
7075;BME280;3578;51.568;6.932;2023-06-22T06:10:38;55840.34;;;-144.14;91.90
7075;BME280;3578;51.568;6.932;2023-06-22T06:13:05;55864.41;;;-144.14;91.96
7075;BME280;3578;51.568;6.932;2023-06-22T06:15:34;55898.50;;;-144.14;92.68
7075;BME280;3578;51.568;6.932;2023-06-22T06:18:02;55834.34;;;-144.14;92.99
7075;BME280;3578;51.568;6.932;2023-06-22T06:20:31;55888.50;;;-144.14;93.66
7075;BME280;3578;51.568;6.932;2023-06-22T06:22:58;55832.31;;;-144.14;94.29
7075;BME280;3578;51.568;6.932;2023-06-22T06:25:25;55792.22;;;-144.14;95.03
7075;BME280;3578;51.568;6.932;2023-06-22T06:27:52;55824.31;;;-144.14;94.92
7075;BME280;3578;51.568;6.932;2023-06-22T06:30:20;55792.22;;;-144.14;94.91
7075;BME280;3578;51.568;6.932;2023-06-22T06:32:49;55770.16;;;-144.14;96.02
7075;BME280;3578;51.568;6.932;2023-06-22T06:35:17;55742.06;;;-144.14;96.57
7075;BME280;3578;51.568;6.932;2023-06-22T06:37:47;55748.09;;;-144.14;96.90
7075;BME280;3578;51.568;6.932;2023-06-22T06:40:17;55720.00;;;-144.14;97.38
7075;BME280;3578;51.568;6.932;2023-06-22T06:42:46;55792.22;;;-144.14;97.51
7075;BME280;3578;51.568;6.932;2023-06-22T06:45:16;55736.06;;;-144.14;98.46
7075;BME280;3578;51.568;6.932;2023-06-22T06:47:44;55740.06;;;-144.14;98.97
7075;BME280;3578;51.568;6.932;2023-06-22T06:50:11;55697.94;;;-144.14;99.58
7075;BME280;3578;51.568;6.932;2023-06-22T06:52:40;55728.03;;;-144.14;99.86
7075;BME280;3578;51.568;6.932;2023-06-22T06:55:08;55687.94;;;-144.14;99.46
7075;BME280;3578;51.568;6.932;2023-06-22T06:57:38;55651.81;;;-144.14;99.76
7075;BME280;3578;51.568;6.932;2023-06-22T07:00:06;55619.75;;;-144.14;100.00
7075;BME280;3578;51.568;6.932;2023-06-22T07:02:38;55649.81;;;-144.14;100.00
7075;BME280;3578;51.568;6.932;2023-06-22T07:05:07;55611.72;;;-144.14;99.99
7075;BME280;3578;51.568;6.932;2023-06-22T07:07:34;55575.63;;;-144.14;100.00
7075;BME280;3578;51.568;6.932;2023-06-22T07:10:04;55589.66;;;-144.14;99.84
7075;BME280;3578;51.568;6.932;2023-06-22T07:12:31;55601.69;;;-144.14;100.00
7075;BME280;3578;51.568;6.932;2023-06-22T07:15:03;55627.75;;;-144.14;100.00
7075;BME280;3578;51.568;6.932;2023-06-22T07:17:30;55651.81;;;-144.14;100.00
7075;BME280;3578;51.568;6.932;2023-06-22T07:19:57;55641.81;;;-144.14;100.00
7075;BME280;3578;51.568;6.932;2023-06-22T07:22:24;55671.88;;;-144.14;100.00
7075;BME280;3578;51.568;6.932;2023-06-22T07:24:51;55671.88;;;-144.14;100.00
7075;BME280;3578;51.568;6.932;2023-06-22T07:27:20;55647.81;;;-144.14;100.00
7075;BME280;3578;51.568;6.932;2023-06-22T07:29:47;55671.88;;;-144.14;99.21
7075;BME280;3578;51.568;6.932;2023-06-22T07:32:14;55665.88;;;-144.14;98.91
7075;BME280;3578;51.568;6.932;2023-06-22T07:34:41;55667.88;;;-144.14;99.25
7075;BME280;3578;51.568;6.932;2023-06-22T07:37:08;55659.84;;;-144.14;99.88
7075;BME280;3578;51.568;6.932;2023-06-22T07:39:35;55619.75;;;-144.14;100.00
7075;BME280;3578;51.568;6.932;2023-06-22T07:42:04;55643.81;;;-144.14;100.00
7075;BME280;3578;51.568;6.932;2023-06-22T07:44:32;55631.78;;;-144.14;100.00
7075;BME280;3578;51.568;6.932;2023-06-22T07:46:59;55667.88;;;-144.14;100.00
7075;BME280;3578;51.568;6.932;2023-06-22T07:49:27;55703.97;;;-144.14;100.00
7075;BME280;3578;51.568;6.932;2023-06-22T07:51:54;55639.78;;;-144.14;100.00
7075;BME280;3578;51.568;6.932;2023-06-22T07:54:21;55712.00;;;-144.14;100.00
7075;BME280;3578;51.568;6.932;2023-06-22T07:56:49;55746.09;;;-144.14;100.00
7075;BME280;3578;51.568;6.932;2023-06-22T07:59:16;55742.06;;;-144.14;100.00
7075;BME280;3578;51.568;6.932;2023-06-22T08:01:44;55750.09;;;-144.14;99.18
7075;BME280;3578;51.568;6.932;2023-06-22T08:04:11;55798.22;;;-144.14;99.35
7075;BME280;3578;51.568;6.932;2023-06-22T08:06:38;55822.31;;;-144.14;99.64
7075;BME280;3578;51.568;6.932;2023-06-22T08:09:05;55894.50;;;-144.14;99.79
7075;BME280;3578;51.568;6.932;2023-06-22T08:11:32;55940.63;;;-144.14;99.09
7075;BME280;3578;51.568;6.932;2023-06-22T08:13:59;56002.81;;;-144.14;99.04
7075;BME280;3578;51.568;6.932;2023-06-22T08:16:26;56000.81;;;-144.14;98.22
7075;BME280;3578;51.568;6.932;2023-06-22T08:18:55;56032.91;;;-144.14;97.13
7075;BME280;3578;51.568;6.932;2023-06-22T08:21:22;56016.84;;;-144.14;97.03
7075;BME280;3578;51.568;6.932;2023-06-22T08:23:49;56024.88;;;-144.14;97.82
7075;BME280;3578;51.568;6.932;2023-06-22T08:26:16;56026.88;;;-144.14;98.64
7075;BME280;3578;51.568;6.932;2023-06-22T08:28:43;56083.03;;;-144.14;98.08
7075;BME280;3578;51.568;6.932;2023-06-22T08:31:10;56079.03;;;-144.14;96.87
7075;BME280;3578;51.568;6.932;2023-06-22T08:33:38;56149.22;;;-144.14;96.83
7075;BME280;3578;51.568;6.932;2023-06-22T08:36:06;56245.50;;;-144.14;96.68
7075;BME280;3578;51.568;6.932;2023-06-22T08:38:36;56335.78;;;-144.14;96.41
7075;BME280;3578;51.568;6.932;2023-06-22T08:41:03;56410.00;;;-144.14;94.31
7075;BME280;3578;51.568;6.932;2023-06-22T08:43:30;56462.16;;;-144.14;92.51
7075;BME280;3578;51.568;6.932;2023-06-22T08:45:57;56528.34;;;-144.14;91.42
7075;BME280;3578;51.568;6.932;2023-06-22T08:48:24;56502.28;;;-144.14;90.73
7075;BME280;3578;51.568;6.932;2023-06-22T08:50:51;56522.34;;;-144.14;90.09
7075;BME280;3578;51.568;6.932;2023-06-22T08:53:19;56548.41;;;-144.14;90.37
7075;BME280;3578;51.568;6.932;2023-06-22T08:55:46;56528.34;;;-144.14;90.76
7075;BME280;3578;51.568;6.932;2023-06-22T08:58:13;56574.50;;;-144.14;90.80
7075;BME280;3578;51.568;6.932;2023-06-22T09:00:40;56584.53;;;-144.14;90.67
7075;BME280;3578;51.568;6.932;2023-06-22T09:03:07;56528.34;;;-144.14;91.23
7075;BME280;3578;51.568;6.932;2023-06-22T09:05:34;56506.28;;;-144.14;91.36
7075;BME280;3578;51.568;6.932;2023-06-22T09:08:01;56502.28;;;-144.14;91.74
7075;BME280;3578;51.568;6.932;2023-06-22T09:10:29;56514.31;;;-144.14;91.45
7075;BME280;3578;51.568;6.932;2023-06-22T09:12:57;56554.44;;;-144.14;91.00
7075;BME280;3578;51.568;6.932;2023-06-22T09:15:24;56610.59;;;-144.14;90.62
7075;BME280;3578;51.568;6.932;2023-06-22T09:17:51;56658.75;;;-144.14;90.25
7075;BME280;3578;51.568;6.932;2023-06-22T09:20:20;56734.97;;;-144.14;90.94
7075;BME280;3578;51.568;6.932;2023-06-22T09:22:47;56797.16;;;-144.14;89.67
7075;BME280;3578;51.568;6.932;2023-06-22T09:25:14;56843.31;;;-144.14;88.51
7075;BME280;3578;51.568;6.932;2023-06-22T09:27:43;56849.31;;;-144.14;88.03
7075;BME280;3578;51.568;6.932;2023-06-22T09:30:11;56907.50;;;-144.14;87.61
7075;BME280;3578;51.568;6.932;2023-06-22T09:32:38;56969.72;;;-144.14;88.71
7075;BME280;3578;51.568;6.932;2023-06-22T09:35:06;57031.91;;;-144.14;89.41
7075;BME280;3578;51.568;6.932;2023-06-22T09:37:35;57080.06;;;-144.14;89.83
7075;BME280;3578;51.568;6.932;2023-06-22T09:40:02;57084.06;;;-144.14;88.52
7075;BME280;3578;51.568;6.932;2023-06-22T09:42:35;57092.09;;;-144.14;87.92
7075;BME280;3578;51.568;6.932;2023-06-22T09:45:06;57082.06;;;-144.14;88.76
7075;BME280;3578;51.568;6.932;2023-06-22T09:47:33;57043.94;;;-144.14;88.35
7075;BME280;3578;51.568;6.932;2023-06-22T09:50:00;56987.75;;;-144.14;87.96
7075;BME280;3578;51.568;6.932;2023-06-22T09:52:27;57031.91;;;-144.14;89.22
7075;BME280;3578;51.568;6.932;2023-06-22T09:54:53;56963.69;;;-144.14;90.19
7075;BME280;3578;51.568;6.932;2023-06-22T09:57:21;56941.63;;;-144.14;89.68
7075;BME280;3578;51.568;6.932;2023-06-22T09:59:48;56907.50;;;-144.14;90.09
7075;BME280;3578;51.568;6.932;2023-06-22T10:02:16;56893.47;;;-144.14;91.01
7075;BME280;3578;51.568;6.932;2023-06-22T10:04:43;56883.44;;;-144.14;91.36
7075;BME280;3578;51.568;6.932;2023-06-22T10:07:10;56919.56;;;-144.14;92.10
7075;BME280;3578;51.568;6.932;2023-06-22T10:09:37;56895.47;;;-144.14;91.37
7075;BME280;3578;51.568;6.932;2023-06-22T10:12:05;56935.59;;;-144.14;91.36
7075;BME280;3578;51.568;6.932;2023-06-22T10:14:32;57029.91;;;-144.14;89.64
7075;BME280;3578;51.568;6.932;2023-06-22T10:16:59;57126.19;;;-144.14;89.76
7075;BME280;3578;51.568;6.932;2023-06-22T10:19:28;57178.38;;;-144.14;86.97
7075;BME280;3578;51.568;6.932;2023-06-22T10:21:55;57443.22;;;-144.14;86.77
7075;BME280;3578;51.568;6.932;2023-06-22T10:24:22;57565.63;;;-144.14;85.53
7075;BME280;3578;51.568;6.932;2023-06-22T10:26:48;57844.56;;;-144.14;85.77
7075;BME280;3578;51.568;6.932;2023-06-22T10:29:15;57981.03;;;-144.14;85.00
7075;BME280;3578;51.568;6.932;2023-06-22T10:31:43;58027.19;;;-144.14;78.85
7075;BME280;3578;51.568;6.932;2023-06-22T10:34:10;58107.47;;;-144.14;77.81
7075;BME280;3578;51.568;6.932;2023-06-22T10:36:39;58306.16;;;-144.14;77.11
7075;BME280;3578;51.568;6.932;2023-06-22T10:39:06;58450.69;;;-144.14;76.22
7075;BME280;3578;51.568;6.932;2023-06-22T10:41:33;58528.97;;;-144.14;75.39
7075;BME280;3578;51.568;6.932;2023-06-22T10:43:59;58687.53;;;-144.14;73.79
7075;BME280;3578;51.568;6.932;2023-06-22T10:46:26;58557.06;;;-144.14;70.16
7075;BME280;3578;51.568;6.932;2023-06-22T10:48:53;58516.91;;;-144.14;71.17
7075;BME280;3578;51.568;6.932;2023-06-22T10:51:22;58482.78;;;-144.14;71.88
7075;BME280;3578;51.568;6.932;2023-06-22T10:53:51;58476.78;;;-144.14;71.91
7075;BME280;3578;51.568;6.932;2023-06-22T10:56:18;58404.50;;;-144.14;71.44
7075;BME280;3578;51.568;6.932;2023-06-22T10:58:45;58378.41;;;-144.14;73.60
7075;BME280;3578;51.568;6.932;2023-06-22T11:01:12;58396.47;;;-144.14;73.60
7075;BME280;3578;51.568;6.932;2023-06-22T11:03:39;58484.78;;;-144.14;73.88
7075;BME280;3578;51.568;6.932;2023-06-22T11:06:06;58474.75;;;-144.14;76.19
7075;BME280;3578;51.568;6.932;2023-06-22T11:08:33;58322.22;;;-144.14;70.57
7075;BME280;3578;51.568;6.932;2023-06-22T11:11:02;58201.78;;;-144.14;71.92
7075;BME280;3578;51.568;6.932;2023-06-22T11:13:29;58087.41;;;-144.14;74.66
7075;BME280;3578;51.568;6.932;2023-06-22T11:15:56;57987.06;;;-144.14;77.04
7075;BME280;3578;51.568;6.932;2023-06-22T11:18:23;57950.94;;;-144.14;80.06
7075;BME280;3578;51.568;6.932;2023-06-22T11:20:50;57812.44;;;-144.14;82.01
7075;BME280;3578;51.568;6.932;2023-06-22T11:23:17;57702.09;;;-144.14;82.28
7075;BME280;3578;51.568;6.932;2023-06-22T11:25:44;57621.81;;;-144.14;80.98
7075;BME280;3578;51.568;6.932;2023-06-22T11:28:13;57547.56;;;-144.14;79.01
7075;BME280;3578;51.568;6.932;2023-06-22T11:30:40;57425.16;;;-144.14;79.99
7075;BME280;3578;51.568;6.932;2023-06-22T11:33:07;57403.09;;;-144.14;80.48
7075;BME280;3578;51.568;6.932;2023-06-22T11:35:34;57332.88;;;-144.14;83.66
7075;BME280;3578;51.568;6.932;2023-06-22T11:38:01;57383.03;;;-144.14;84.66
7075;BME280;3578;51.568;6.932;2023-06-22T11:40:29;57391.06;;;-144.14;83.88
7075;BME280;3578;51.568;6.932;2023-06-22T11:42:56;57330.84;;;-144.14;85.72
7075;BME280;3578;51.568;6.932;2023-06-22T11:45:24;57264.66;;;-144.14;87.47
7075;BME280;3578;51.568;6.932;2023-06-22T11:47:51;57218.50;;;-144.14;88.68
7075;BME280;3578;51.568;6.932;2023-06-22T11:50:18;57186.41;;;-144.14;88.56
7075;BME280;3578;51.568;6.932;2023-06-22T11:52:45;57148.28;;;-144.14;89.80
7075;BME280;3578;51.568;6.932;2023-06-22T11:55:12;57062.00;;;-144.14;90.88
7075;BME280;3578;51.568;6.932;2023-06-22T11:57:54;56961.69;;;-144.14;92.67
7075;BME280;3578;51.568;6.932;2023-06-22T12:00:21;56945.63;;;-144.14;94.45
7075;BME280;3578;51.568;6.932;2023-06-22T12:02:51;56875.41;;;-144.14;96.44
7075;BME280;3578;51.568;6.932;2023-06-22T12:05:19;56827.25;;;-144.14;98.06
7075;BME280;3578;51.568;6.932;2023-06-22T12:07:46;56791.16;;;-144.14;98.80
7075;BME280;3578;51.568;6.932;2023-06-22T12:10:13;56686.84;;;-144.14;99.93
7075;BME280;3578;51.568;6.932;2023-06-22T12:12:40;56624.63;;;-144.14;100.00
7075;BME280;3578;51.568;6.932;2023-06-22T12:15:08;56606.59;;;-144.14;100.00
7075;BME280;3578;51.568;6.932;2023-06-22T12:17:36;56534.38;;;-144.14;100.00
7075;BME280;3578;51.568;6.932;2023-06-22T12:20:07;56456.13;;;-144.14;100.00
7075;BME280;3578;51.568;6.932;2023-06-22T12:22:34;56325.75;;;-144.14;100.00
7075;BME280;3578;51.568;6.932;2023-06-22T12:25:04;56119.16;;;-144.14;100.00
7075;BME280;3578;51.568;6.932;2023-06-22T12:27:31;55896.50;;;-144.14;100.00
7075;BME280;3578;51.568;6.932;2023-06-22T12:29:58;55748.09;;;-144.14;100.00
7075;BME280;3578;51.568;6.932;2023-06-22T12:32:24;55543.53;;;-144.14;100.00
7075;BME280;3578;51.568;6.932;2023-06-22T12:34:52;55407.16;;;-144.14;100.00
7075;BME280;3578;51.568;6.932;2023-06-22T12:37:20;55479.34;;;-144.14;100.00
7075;BME280;3578;51.568;6.932;2023-06-22T12:39:47;55465.31;;;-144.14;100.00
7075;BME280;3578;51.568;6.932;2023-06-22T12:42:15;55399.13;;;-144.14;100.00
7075;BME280;3578;51.568;6.932;2023-06-22T12:44:42;55357.03;;;-144.14;100.00
7075;BME280;3578;51.568;6.932;2023-06-22T12:47:10;54573.03;;;-144.14;100.00
7075;BME280;3578;51.568;6.932;2023-06-22T12:49:37;54593.09;;;-144.14;100.00
7075;BME280;3578;51.568;6.932;2023-06-22T12:52:09;54518.91;;;-144.14;100.00
7075;BME280;3578;51.568;6.932;2023-06-22T12:54:38;54538.94;;;-144.14;100.00
7075;BME280;3578;51.568;6.932;2023-06-22T12:57:06;54510.88;;;-144.14;100.00
7075;BME280;3578;51.568;6.932;2023-06-22T12:59:33;54526.91;;;-144.14;100.00
7075;BME280;3578;51.568;6.932;2023-06-22T13:02:00;54561.00;;;-144.14;100.00
7075;BME280;3578;51.568;6.932;2023-06-22T13:04:27;54557.00;;;-144.14;100.00